Flight Track Log - Related Links

Times and Time Zones

All times are in EDT time to prevent confusion due to time zone crossing. See the FWK90 flight status page for this flight to view local times or setup timezone preferences in your user account.


Time Position Orientation Groundspeed Altitude Reporting Facility
EDT Latitude Longitude Course Direction KTS MPH feet Rate Location/Type
Fri 02:49:17 PM 36.1333 -86.6833 39° Northeast 175 201 1,400  Level Nashville TRACON
Fri 02:49:47 PM 36.1500 -86.6667 11° North 188 216 3,200 3,333 Climbing Nashville TRACON
Fri 02:50:47 PM 36.2167 -86.6500 103° East 261 300 6,400 3,214 Climbing Nashville TRACON
Fri 02:52:07 PM 36.1981 -86.5531 172° South 324 373 10,700 3,257 Climbing Memphis Center
Fri 02:53:07 PM 36.0975 -86.5347 174° South 306 352 14,000 3,200 Climbing Memphis Center
Fri 02:54:07 PM 35.9928 -86.5217 144° Southeast 357 411 17,100 2,798 Climbing Memphis Center
Fri 02:56:05 PM 35.8069 -86.3536 143° Southeast 435 501 22,300 2,494 Climbing Atlanta Center
Fri 02:57:05 PM 35.7189 -86.2717 144° Southeast 445 512 24,500 2,218 Climbing Atlanta Center
Fri 02:58:04 PM 35.6183 -86.1822 144° Southeast 450 518 26,700 2,150 Climbing Atlanta Center
Fri 02:59:05 PM 35.5011 -86.0769 142° Southeast 455 524 28,800 1,150 Climbing Atlanta Center
Fri 03:00:04 PM 35.4044 -85.9856 146° Southeast 475 547 29,000 454 Climbing Atlanta Center
Fri 03:01:04 PM 35.2914 -85.8911 143° Southeast 489 563 29,700 1,339 Climbing Atlanta Center
Fri 03:02:05 PM 35.1739 -85.7844 144° Southeast 489 563 31,700 1,983 Climbing Atlanta Center
Fri 03:03:05 PM 35.0667 -85.6883 144° Southeast 484 557 33,700 1,966 Climbing Atlanta Center
Fri 03:04:04 PM 34.9594 -85.5922 143° Southeast 484 557 35,600 1,714 Climbing Atlanta Center
Fri 03:05:04 PM 34.8564 -85.4967 143° Southeast 484 557 37,100 1,200 Climbing Atlanta Center
Fri 03:06:04 PM 34.7511 -85.3989 142° Southeast 473 544 38,000 450 Climbing Atlanta Center
Fri 03:07:04 PM 34.6414 -85.2961 143° Southeast 480 552 38,000  Level Atlanta Center
Fri 03:08:04 PM 34.5319 -85.1961 141° Southeast 493 567 38,000 300 Level Atlanta Center
Fri 03:09:04 PM 34.4283 -85.0939 142° Southeast 488 562 38,600 793 Climbing Atlanta Center
Fri 03:10:05 PM 34.3186 -84.9919 143° Southeast 488 562 39,600 1,000 Climbing Atlanta Center
Fri 03:11:04 PM 34.2128 -84.8953 143° Southeast 488 562 40,600 706 Climbing Atlanta Center
Fri 03:12:04 PM 34.1008 -84.7939 142° Southeast 483 556 41,000 198 Climbing Atlanta Center
Fri 03:13:05 PM 33.9950 -84.6928 143° Southeast 490 564 41,000  Level Atlanta Center
Fri 03:14:04 PM 33.8869 -84.5944 143° Southeast 490 564 41,000  Level Atlanta Center
Fri 03:15:05 PM 33.7831 -84.5011 144° Southeast 484 557 41,000  Level Atlanta Center
Fri 03:16:05 PM 33.6728 -84.4033 142° Southeast 482 555 41,000  Level Atlanta Center
Fri 03:17:04 PM 33.5644 -84.3006 143° Southeast 488 562 41,000 -50 Level Atlanta Center
Fri 03:18:05 PM 33.4603 -84.2081 143° Southeast 488 562 40,900 -787 Descending Atlanta Center
Fri 03:19:06 PM 33.3517 -84.1083 143° Southeast 483 556 39,400 -1,500 Descending Atlanta Center
Fri 03:20:05 PM 33.2494 -84.0164 143° Southeast 483 556 37,900 -1,513 Descending Atlanta Center
Fri 03:21:05 PM 33.1367 -83.9147 141° Southeast 488 562 36,400 -1,513 Descending Atlanta Center
Fri 03:22:04 PM 33.0300 -83.8133 145° Southeast 493 567 34,900 -1,210 Descending Atlanta Center
Fri 03:23:04 PM 32.9192 -83.7197 143° Southeast 493 567 34,000 -450 Descending Atlanta Center
Fri 03:24:04 PM 32.8103 -83.6236 143° Southeast 493 567 34,000  Level Atlanta Center
Fri 03:25:04 PM 32.7014 -83.5278 143° Southeast 493 567 34,000  Level Atlanta Center
Fri 03:26:05 PM 32.5925 -83.4300 143° Southeast 493 567 34,000 -100 Level Atlanta Center
Fri 03:27:04 PM 32.4856 -83.3347 143° Southeast 488 562 33,800 -1,249 Descending Atlanta Center
Fri 03:30:58 PM 32.0683 -82.9661 144° Southeast 474 545 27,900 -1,510 Descending Jacksonville Center
Fri 03:31:58 PM 31.9661 -82.8778 145° Southeast 463 533 26,400 -1,500 Descending Jacksonville Center
Fri 03:32:58 PM 31.8658 -82.7947 143° Southeast 452 520 24,900 -1,200 Descending Jacksonville Center
Fri 03:33:58 PM 31.7656 -82.7069 144° Southeast 447 514 24,000 -1,250 Descending Jacksonville Center
Fri 03:34:58 PM 31.6672 -82.6242 143° Southeast 447 514 22,400 -1,600 Descending Jacksonville Center
Fri 03:35:58 PM 31.5711 -82.5389 150° Southeast 447 514 20,800 -1,650 Descending Jacksonville Center
Fri 03:36:58 PM 31.4728 -82.4736 158° South 433 498 19,100 -1,600 Descending Jacksonville Center
Fri 03:37:58 PM 31.3681 -82.4253 159° South 414 476 17,600 -1,500 Descending Jacksonville Center
Fri 03:38:58 PM 31.2739 -82.3822 156° South 404 465 16,100 -1,500 Descending Jacksonville Center
Fri 03:39:58 PM 31.1756 -82.3317 157° South 398 458 14,600 -1,596 Descending Jacksonville Center
Fri 03:40:32 PM 31.1128 -82.3006 155° Southeast 379 436 13,600 -1,311 Descending Jacksonville Center
Fri 03:41:57 PM 30.9808 -82.2286 137° Southeast 356 410 12,000 -781 Descending Jacksonville Center
Fri 03:42:58 PM 30.9075 -82.1492 137° Southeast 355 409 11,700 -843 Descending Jacksonville Center
Fri 03:43:58 PM 30.8486 -82.0844 136° Southeast 345 397 10,300 -1,450 Descending Jacksonville Center
Fri 03:44:58 PM 30.7897 -82.0172 137° Southeast 319 367 8,800 -1,500 Descending Jacksonville Center
Fri 03:45:58 PM 30.7286 -81.9500 136° Southeast 305 351 7,300 -1,500 Descending Jacksonville Center
Fri 03:46:58 PM 30.6739 -81.8878 114° Southeast 293 337 5,800 -1,550 Descending Jacksonville Center
Fri 03:47:58 PM 30.6439 -81.8083 93° East 281 323 4,200 -1,571 Descending Jacksonville Center
Fri 03:49:04 PM 30.6389 -81.7022 95° East 270 311 2,500 -1,150 Descending Jacksonville Center
Fri 03:49:58 PM 30.6342 -81.6394 152° Southeast 254 292 1,900 -295 Descending Jacksonville Center
Fri 03:51:06 PM 30.5775 -81.6042 185° South 187 215 1,900 -233 Level Jacksonville Center
Fri 03:52:07 PM 30.5294 -81.6094 243° Southwest 162 186 1,400 -689 Descending Jacksonville Center
Fri 03:53:08 PM 30.5111 -81.6508 243° Southwest 141 162 500 -885 Descending Jacksonville Center

Login

Don't have an account? Register now (free) for customized features, flight alerts, and more!